createdAt,value
2022-10-23T00:01:27.812Z,21.90
2022-10-23T00:04:03.245Z,24.00
2022-10-23T00:06:37.229Z,27.80
2022-10-23T00:09:13.857Z,24.30
2022-10-23T00:11:48.241Z,23.60
2022-10-23T00:14:23.801Z,22.10
2022-10-23T00:16:56.616Z,22.10
2022-10-23T00:19:29.357Z,21.70
2022-10-23T00:22:02.202Z,20.40
2022-10-23T00:24:35.054Z,22.30
2022-10-23T00:27:07.956Z,19.80
2022-10-23T00:29:40.757Z,20.60
2022-10-23T00:32:13.525Z,21.50
2022-10-23T00:34:46.581Z,17.80
2022-10-23T00:37:19.745Z,21.70
2022-10-23T00:39:52.749Z,22.20
2022-10-23T00:42:26.401Z,24.20
2022-10-23T00:45:26.565Z,18.40
2022-10-23T00:47:59.313Z,19.70
2022-10-23T00:50:34.267Z,18.30
2022-10-23T00:53:08.935Z,21.10
2022-10-23T00:55:46.979Z,16.90
2022-10-23T00:58:22.453Z,15.90
2022-10-23T01:00:58.078Z,17.90
2022-10-23T01:03:32.211Z,16.90
2022-10-23T01:06:14.052Z,15.70
2022-10-23T01:08:52.593Z,20.00
2022-10-23T01:11:31.192Z,17.50
2022-10-23T01:14:13.449Z,22.50
2022-10-23T01:16:51.872Z,22.90
2022-10-23T01:19:45.895Z,18.00
2022-10-23T01:22:39.650Z,18.80
2022-10-23T01:25:29.211Z,20.00
2022-10-23T01:28:06.345Z,24.20
2022-10-23T01:30:44.088Z,24.50
2022-10-23T01:33:23.049Z,25.00
2022-10-23T01:36:01.663Z,18.90
2022-10-23T01:38:43.023Z,22.80
2022-10-23T01:41:33.102Z,19.40
2022-10-23T01:44:16.289Z,21.40
2022-10-23T01:46:51.321Z,20.70
2022-10-23T01:49:26.182Z,20.20
2022-10-23T01:52:07.637Z,21.70
2022-10-23T01:54:43.789Z,19.40
2022-10-23T01:57:20.171Z,20.20
2022-10-23T01:59:57.384Z,20.10
2022-10-23T02:02:31.631Z,22.10
2022-10-23T02:05:10.597Z,20.80
2022-10-23T02:07:44.025Z,18.90
2022-10-23T02:10:18.133Z,19.70
2022-10-23T02:12:59.382Z,22.90
2022-10-23T02:15:37.519Z,21.60
2022-10-23T02:18:19.985Z,17.40
2022-10-23T02:20:57.833Z,19.70
2022-10-23T02:23:36.951Z,18.60
2022-10-23T02:26:17.322Z,17.70
2022-10-23T02:28:59.085Z,18.90
2022-10-23T02:31:32.437Z,21.90
2022-10-23T02:34:05.257Z,17.50
2022-10-23T02:36:38.111Z,21.80
2022-10-23T02:39:11.288Z,21.50
2022-10-23T02:41:50.554Z,17.80
2022-10-23T02:44:40.395Z,16.90
2022-10-23T02:47:29.205Z,17.30
2022-10-23T02:50:11.455Z,16.30
2022-10-23T02:52:57.421Z,19.40
2022-10-23T02:55:42.728Z,17.90
2022-10-23T02:58:25.407Z,15.40
2022-10-23T03:01:03.161Z,15.50
2022-10-23T03:03:40.965Z,16.50
2022-10-23T03:06:14.095Z,16.50
2022-10-23T03:08:50.665Z,20.10
2022-10-23T03:11:24.181Z,15.70
2022-10-23T03:13:57.244Z,17.20
2022-10-23T03:16:30.117Z,18.90
2022-10-23T03:19:02.992Z,21.50
2022-10-23T03:21:35.900Z,19.70
2022-10-23T03:24:09.873Z,18.90
2022-10-23T03:26:46.595Z,19.30
2022-10-23T03:29:19.405Z,21.00
2022-10-23T03:31:52.197Z,19.50
2022-10-23T03:34:25.172Z,17.60
2022-10-23T03:36:59.143Z,19.90
2022-10-23T03:39:32.304Z,16.60
2022-10-23T03:42:05.474Z,17.10
2022-10-23T03:44:38.729Z,15.30
2022-10-23T03:47:12.155Z,14.00
2022-10-23T03:49:45.101Z,17.80
2022-10-23T03:52:17.893Z,18.40
2022-10-23T03:54:50.673Z,17.20
2022-10-23T03:57:24.353Z,18.30
2022-10-23T03:59:57.349Z,18.20
2022-10-23T04:02:34.495Z,17.60
2022-10-23T04:05:08.496Z,17.10
2022-10-23T04:07:41.282Z,17.20
2022-10-23T04:10:14.604Z,16.40
2022-10-23T04:12:47.447Z,16.60
2022-10-23T04:15:20.700Z,13.60
2022-10-23T04:17:53.472Z,12.10
2022-10-23T04:20:26.265Z,16.70
2022-10-23T04:22:59.243Z,16.60
2022-10-23T04:25:32.129Z,16.80
2022-10-23T04:28:05.057Z,16.70
2022-10-23T04:30:42.872Z,20.40
2022-10-23T04:33:18.469Z,16.90
2022-10-23T04:35:57.806Z,20.00
2022-10-23T04:38:30.708Z,14.70
2022-10-23T04:41:03.675Z,19.60
2022-10-23T04:43:36.830Z,18.70
2022-10-23T04:46:09.944Z,13.20
2022-10-23T04:48:42.807Z,12.40
2022-10-23T04:51:35.905Z,15.00
2022-10-23T04:54:15.977Z,13.80
2022-10-23T04:57:08.486Z,14.60
2022-10-23T04:59:58.747Z,15.90
2022-10-23T05:02:31.626Z,16.50
2022-10-23T05:05:05.814Z,23.10
2022-10-23T05:07:42.197Z,15.00
2022-10-23T05:10:26.229Z,14.90
2022-10-23T05:13:10.291Z,14.80
2022-10-23T05:18:28.247Z,16.30
2022-10-23T05:21:06.326Z,18.00
2022-10-23T05:23:42.379Z,25.90
2022-10-23T05:26:15.566Z,28.30
2022-10-23T05:28:51.118Z,61.10
2022-10-23T05:31:25.580Z,30.90
2022-10-23T05:34:02.905Z,24.80
2022-10-23T05:36:36.428Z,25.00
2022-10-23T05:39:09.466Z,22.20
2022-10-23T05:41:42.881Z,22.80
2022-10-23T05:44:15.630Z,28.30
2022-10-23T05:47:09.916Z,17.00
2022-10-23T05:50:09.746Z,22.10
2022-10-23T05:53:01.149Z,19.50
2022-10-23T05:55:44.866Z,24.90
2022-10-23T05:58:36.793Z,19.00
2022-10-23T06:01:20.236Z,17.40
2022-10-23T06:04:06.006Z,22.30
2022-10-23T06:06:56.035Z,22.80
2022-10-23T06:09:29.865Z,26.90
2022-10-23T06:12:04.168Z,14.10
2022-10-23T06:14:37.529Z,12.90
2022-10-23T06:17:10.555Z,12.00
2022-10-23T06:19:47.360Z,15.10
2022-10-23T06:22:23.580Z,16.20
2022-10-23T06:25:00.184Z,16.70
2022-10-23T06:27:33.243Z,19.90
2022-10-23T06:30:09.497Z,16.10
2022-10-23T06:32:42.714Z,13.80
2022-10-23T06:35:18.907Z,11.40
2022-10-23T06:37:52.235Z,17.00
2022-10-23T06:40:35.158Z,15.50
2022-10-23T06:43:11.271Z,16.10
2022-10-23T06:46:13.769Z,15.20
2022-10-23T06:49:06.966Z,19.20
2022-10-23T06:51:46.306Z,18.80
2022-10-23T06:54:20.100Z,16.50
2022-10-23T06:56:55.615Z,18.40
2022-10-23T06:59:35.403Z,17.30
2022-10-23T07:02:10.347Z,17.50
2022-10-23T07:04:43.465Z,15.00
2022-10-23T07:07:20.620Z,17.00
2022-10-23T07:09:56.259Z,18.30
2022-10-23T07:13:04.419Z,16.30
2022-10-23T07:15:37.427Z,20.90
2022-10-23T07:18:14.624Z,16.70
2022-10-23T07:21:06.107Z,19.00
2022-10-23T07:23:39.226Z,14.30
2022-10-23T07:26:15.638Z,16.60
2022-10-23T07:28:55.059Z,14.10
2022-10-23T07:31:29.049Z,15.10
2022-10-23T07:34:22.229Z,14.90
2022-10-23T07:37:01.002Z,31.30
2022-10-23T07:39:33.845Z,20.20
2022-10-23T07:42:06.933Z,42.50
2022-10-23T07:44:40.536Z,17.00
2022-10-23T07:47:13.392Z,14.60
2022-10-23T07:49:48.608Z,15.50
2022-10-23T07:52:22.330Z,11.80
2022-10-23T07:55:16.003Z,12.10
2022-10-23T07:57:58.620Z,12.10
2022-10-23T08:00:43.071Z,11.80
2022-10-23T08:03:23.711Z,11.10
2022-10-23T08:05:58.860Z,13.30
2022-10-23T08:08:32.889Z,11.10
2022-10-23T08:11:08.425Z,12.40
2022-10-23T08:13:49.445Z,9.90
2022-10-23T08:16:22.882Z,9.80
2022-10-23T08:19:19.033Z,8.90
2022-10-23T08:21:54.886Z,10.10
2022-10-23T08:24:27.996Z,9.90
2022-10-23T08:27:02.225Z,9.10
2022-10-23T08:29:35.819Z,11.60
2022-10-23T08:32:09.054Z,12.70
2022-10-23T08:34:54.539Z,7.80
2022-10-23T08:37:29.110Z,8.80
2022-10-23T08:40:02.606Z,7.50
2022-10-23T08:43:01.326Z,8.90
2022-10-23T08:45:42.461Z,11.10
2022-10-23T08:48:31.855Z,9.20
2022-10-23T08:51:41.858Z,9.70
2022-10-23T08:54:19.500Z,7.00
2022-10-23T08:56:58.503Z,7.10
2022-10-23T08:59:39.629Z,7.70
2022-10-23T09:02:22.505Z,7.70
2022-10-23T09:04:58.604Z,7.50
2022-10-23T09:07:48.094Z,9.20
2022-10-23T09:10:38.771Z,7.90
2022-10-23T09:13:30.446Z,9.50
2022-10-23T09:16:13.039Z,6.60
2022-10-23T09:18:48.379Z,6.10
2022-10-23T09:21:22.099Z,7.80
2022-10-23T09:23:55.030Z,4.00
2022-10-23T09:26:27.964Z,7.60
2022-10-23T09:29:20.205Z,6.10
2022-10-23T09:31:58.302Z,7.50
2022-10-23T09:34:33.593Z,5.00
2022-10-23T09:37:22.657Z,7.00
2022-10-23T09:40:15.554Z,4.80
2022-10-23T09:43:05.097Z,7.30
2022-10-23T09:48:18.727Z,8.40
2022-10-23T09:50:57.791Z,5.10
2022-10-23T09:53:41.348Z,4.60
2022-10-23T09:56:31.776Z,5.10
2022-10-23T09:59:07.067Z,5.50
2022-10-23T10:01:49.542Z,3.10
2022-10-23T10:04:45.105Z,9.70
2022-10-23T10:07:24.262Z,5.10
2022-10-23T10:09:59.044Z,3.50
2022-10-23T10:12:51.276Z,4.70
2022-10-23T10:15:34.842Z,5.10
2022-10-23T10:18:20.776Z,5.00
2022-10-23T10:21:12.342Z,6.50
2022-10-23T10:23:55.997Z,7.40
2022-10-23T10:26:40.933Z,4.00
2022-10-23T10:29:30.987Z,5.10
2022-10-23T10:32:27.518Z,6.70
2022-10-23T10:35:09.844Z,6.20
2022-10-23T10:37:56.791Z,4.70
2022-10-23T10:40:34.362Z,3.90
2022-10-23T10:43:29.718Z,7.90
2022-10-23T10:46:11.351Z,7.80
2022-10-23T10:48:58.104Z,7.10
2022-10-23T10:51:41.923Z,5.90
2022-10-23T10:54:31.771Z,6.20
2022-10-23T10:57:15.042Z,3.90
2022-10-23T10:59:52.566Z,4.40
2022-10-23T11:02:33.358Z,8.30
2022-10-23T11:05:20.176Z,7.00
2022-10-23T11:08:00.431Z,5.00
2022-10-23T11:10:34.046Z,3.90
2022-10-23T11:13:07.337Z,3.80
2022-10-23T11:15:47.239Z,5.50
2022-10-23T11:18:26.801Z,4.20
2022-10-23T11:21:10.409Z,3.80
2022-10-23T11:24:21.974Z,5.30
2022-10-23T11:27:14.731Z,5.10
2022-10-23T11:30:12.113Z,10.40
2022-10-23T11:33:25.810Z,4.40
2022-10-23T11:36:14.286Z,3.40
2022-10-23T11:38:50.512Z,4.40
2022-10-23T11:41:27.449Z,4.50
2022-10-23T11:44:04.810Z,4.50
2022-10-23T11:46:40.021Z,4.00
2022-10-23T11:49:24.485Z,4.10
2022-10-23T11:52:06.479Z,5.10
2022-10-23T11:54:39.250Z,3.90
2022-10-23T11:57:18.421Z,5.00
2022-10-23T12:00:00.969Z,3.70
2022-10-23T12:02:38.470Z,4.30
2022-10-23T12:05:30.795Z,5.60
2022-10-23T12:08:07.972Z,7.70
2022-10-23T12:10:50.725Z,4.10
2022-10-23T12:13:48.332Z,4.00
2022-10-23T12:16:21.232Z,7.90
2022-10-23T12:18:57.166Z,5.10
2022-10-23T12:21:39.236Z,3.70
2022-10-23T12:24:31.892Z,3.30
2022-10-23T12:27:22.957Z,3.90
2022-10-23T12:30:14.126Z,4.80
2022-10-23T12:33:06.646Z,4.90
2022-10-23T12:36:17.037Z,3.70
2022-10-23T12:38:51.226Z,5.90
2022-10-23T12:41:28.350Z,4.00
2022-10-23T12:44:04.448Z,8.30
2022-10-23T12:46:41.725Z,5.20
2022-10-23T12:49:21.146Z,8.80
2022-10-23T12:52:02.011Z,7.00
2022-10-23T12:54:41.827Z,4.80
2022-10-23T12:57:26.805Z,5.00
2022-10-23T13:00:04.678Z,7.40
2022-10-23T13:02:39.985Z,5.30
2022-10-23T13:05:20.906Z,8.20
2022-10-23T13:07:55.130Z,5.00
2022-10-23T13:10:35.616Z,7.10
2022-10-23T13:13:13.414Z,6.40
2022-10-23T13:15:47.503Z,7.90
2022-10-23T13:18:21.225Z,6.60
2022-10-23T13:21:21.418Z,21.40
2022-10-23T13:23:56.222Z,4.90
2022-10-23T13:26:43.046Z,8.60
2022-10-23T13:31:58.621Z,5.50
2022-10-23T13:34:33.370Z,6.40
2022-10-23T13:37:25.663Z,7.40
2022-10-23T13:40:23.468Z,16.70
2022-10-23T13:42:59.020Z,11.90
2022-10-23T13:45:31.917Z,5.00
2022-10-23T13:48:09.390Z,8.80
2022-10-23T13:50:42.329Z,7.20
2022-10-23T13:53:16.968Z,8.40
2022-10-23T13:55:56.277Z,5.30
2022-10-23T13:58:31.528Z,7.70
2022-10-23T14:01:04.904Z,7.80
2022-10-23T14:03:37.798Z,8.70
2022-10-23T14:06:13.280Z,7.50
2022-10-23T14:08:47.017Z,12.00
2022-10-23T14:11:22.344Z,7.50
2022-10-23T14:13:55.792Z,8.00
2022-10-23T14:16:29.889Z,4.80
2022-10-23T14:19:03.092Z,5.00
2022-10-23T14:21:38.834Z,7.90
2022-10-23T14:24:12.951Z,7.40
2022-10-23T14:26:48.006Z,7.60
2022-10-23T14:29:24.105Z,7.20
2022-10-23T14:31:57.420Z,7.70
2022-10-23T14:34:30.219Z,5.50
2022-10-23T14:37:08.769Z,8.20
2022-10-23T14:39:46.205Z,11.40
2022-10-23T14:42:21.934Z,8.20
2022-10-23T14:44:55.047Z,7.00
2022-10-23T14:47:27.918Z,5.90
2022-10-23T14:50:00.737Z,11.30
2022-10-23T14:52:33.589Z,8.70
2022-10-23T14:55:07.100Z,7.50
2022-10-23T14:57:40.381Z,7.80
2022-10-23T15:00:17.437Z,5.60
2022-10-23T15:02:50.454Z,18.50
2022-10-23T15:05:23.454Z,8.20
2022-10-23T15:07:59.151Z,10.00
2022-10-23T15:10:32.287Z,7.80
2022-10-23T15:13:05.304Z,9.20
2022-10-23T15:15:37.836Z,8.20
2022-10-23T15:18:10.622Z,9.20
2022-10-23T15:20:43.505Z,11.70
2022-10-23T15:23:16.327Z,12.50
2022-10-23T15:25:57.586Z,16.10
2022-10-23T15:28:31.218Z,15.40
2022-10-23T15:31:04.212Z,18.20
2022-10-23T15:33:39.009Z,18.20
2022-10-23T15:36:12.261Z,17.90
2022-10-23T15:38:45.004Z,15.40
2022-10-23T15:41:23.990Z,16.90
2022-10-23T15:43:56.888Z,14.80
2022-10-23T15:46:30.384Z,14.00
2022-10-23T15:49:03.406Z,13.30
2022-10-23T15:51:36.926Z,12.90
2022-10-23T15:54:13.268Z,12.30
2022-10-23T15:56:46.463Z,12.80
2022-10-23T15:59:21.035Z,12.70
2022-10-23T16:01:55.770Z,13.80
2022-10-23T16:04:29.689Z,16.50
2022-10-23T16:07:02.652Z,18.90
2022-10-23T16:09:35.602Z,23.20
2022-10-23T16:12:09.666Z,20.80
2022-10-23T16:14:43.162Z,25.50
2022-10-23T16:19:53.954Z,25.20
2022-10-23T16:22:27.397Z,23.20
2022-10-23T16:25:00.360Z,19.40
2022-10-23T16:27:33.546Z,17.90
2022-10-23T16:30:09.432Z,17.00
2022-10-23T16:32:42.337Z,18.80
2022-10-23T16:35:15.206Z,15.70
2022-10-23T16:37:54.682Z,16.10
2022-10-23T16:40:27.584Z,16.80
2022-10-23T16:43:18.632Z,19.20
2022-10-23T16:46:09.694Z,18.20
2022-10-23T16:48:43.783Z,14.30
2022-10-23T16:51:19.433Z,19.80
2022-10-23T16:53:53.087Z,15.70
2022-10-23T16:56:29.104Z,16.10
2022-10-23T16:59:02.268Z,18.90
2022-10-23T17:01:37.624Z,13.30
2022-10-23T17:04:11.355Z,12.60
2022-10-23T17:06:44.653Z,15.80
2022-10-23T17:09:19.475Z,14.10
2022-10-23T17:11:53.950Z,11.40
2022-10-23T17:14:29.289Z,11.40
2022-10-23T17:17:05.749Z,19.40
2022-10-23T17:19:46.067Z,15.00
2022-10-23T17:22:19.756Z,21.80
2022-10-23T17:24:53.890Z,14.10
2022-10-23T17:27:27.060Z,17.70
2022-10-23T17:30:00.545Z,17.80
2022-10-23T17:32:33.401Z,14.30
2022-10-23T17:35:07.023Z,12.80
2022-10-23T17:37:40.072Z,12.60
2022-10-23T17:40:14.559Z,19.00
2022-10-23T17:42:47.513Z,25.90
2022-10-23T17:45:20.655Z,21.80
2022-10-23T17:47:53.936Z,18.90
2022-10-23T17:50:26.968Z,18.60
2022-10-23T17:52:59.825Z,19.50
2022-10-23T17:55:32.748Z,22.40
2022-10-23T17:58:05.762Z,21.60
2022-10-23T18:00:39.848Z,25.00
2022-10-23T18:03:14.563Z,23.40
2022-10-23T18:05:50.615Z,22.80
2022-10-23T18:08:23.562Z,21.30
2022-10-23T18:10:56.400Z,16.40
2022-10-23T18:13:29.311Z,21.30
2022-10-23T18:16:06.471Z,20.00
2022-10-23T18:18:39.909Z,24.50
2022-10-23T18:21:13.501Z,18.90
2022-10-23T18:23:47.238Z,16.30
2022-10-23T18:26:23.299Z,25.30
2022-10-23T18:28:59.071Z,26.30
2022-10-23T18:31:32.770Z,23.60
2022-10-23T18:34:08.034Z,21.50
2022-10-23T18:36:42.663Z,20.40
2022-10-23T18:39:22.359Z,18.60
2022-10-23T18:41:58.468Z,19.10
2022-10-23T18:44:31.481Z,21.10
2022-10-23T18:47:04.483Z,19.30
2022-10-23T18:49:37.382Z,18.50
2022-10-23T18:52:10.470Z,22.90
2022-10-23T18:54:43.491Z,19.50
2022-10-23T18:57:16.371Z,26.30
2022-10-23T18:59:51.105Z,23.10
2022-10-23T19:02:24.124Z,21.60
2022-10-23T19:04:57.193Z,20.90
2022-10-23T19:07:30.032Z,21.70
2022-10-23T19:10:03.557Z,19.80
2022-10-23T19:12:36.722Z,21.20
2022-10-23T19:15:11.558Z,19.10
2022-10-23T19:17:44.647Z,17.10
2022-10-23T19:20:20.363Z,17.90
2022-10-23T19:22:55.017Z,17.40
2022-10-23T19:25:32.190Z,17.30
2022-10-23T19:28:06.049Z,18.10
2022-10-23T19:30:38.952Z,19.60
2022-10-23T19:33:11.889Z,17.50
2022-10-23T19:35:44.826Z,17.90
2022-10-23T19:38:17.713Z,15.40
2022-10-23T19:40:50.595Z,16.40
2022-10-23T19:43:23.610Z,16.00
2022-10-23T19:45:56.500Z,18.70
2022-10-23T19:48:29.504Z,16.60
2022-10-23T19:51:02.603Z,17.70
2022-10-23T19:53:36.309Z,15.60
2022-10-23T19:56:12.494Z,17.60
2022-10-23T19:58:45.889Z,17.60
2022-10-23T20:01:21.452Z,16.40
2022-10-23T20:03:55.605Z,17.80
2022-10-23T20:06:34.650Z,16.80
2022-10-23T20:09:09.982Z,15.50
2022-10-23T20:11:43.719Z,13.60
2022-10-23T20:14:17.770Z,13.20
2022-10-23T20:16:55.704Z,20.20
2022-10-23T20:19:29.798Z,16.80
2022-10-23T20:22:02.773Z,16.90
2022-10-23T20:24:35.696Z,15.90
2022-10-23T20:27:09.679Z,14.40
2022-10-23T20:29:42.578Z,17.60
2022-10-23T20:32:16.041Z,16.10
2022-10-23T20:34:49.045Z,13.50
2022-10-23T20:37:21.885Z,15.80
2022-10-23T20:39:57.173Z,16.00
2022-10-23T20:42:30.105Z,14.20
2022-10-23T20:45:03.694Z,18.80
2022-10-23T20:47:36.533Z,14.90
2022-10-23T20:50:11.165Z,14.00
2022-10-23T20:52:44.092Z,15.10
2022-10-23T20:55:17.031Z,15.00
2022-10-23T20:57:49.934Z,15.60
2022-10-23T21:00:24.007Z,16.30
2022-10-23T21:02:57.275Z,22.50
2022-10-23T21:05:30.399Z,19.60
2022-10-23T21:08:03.235Z,18.10
2022-10-23T21:10:36.060Z,21.40
2022-10-23T21:13:09.044Z,13.20
2022-10-23T21:15:42.092Z,13.10
2022-10-23T21:18:27.200Z,14.40
2022-10-23T21:21:11.149Z,20.10
2022-10-23T21:23:44.284Z,14.20
2022-10-23T21:26:18.895Z,13.40
2022-10-23T21:28:56.354Z,16.10
2022-10-23T21:31:46.445Z,16.00
2022-10-23T21:34:19.327Z,18.10
2022-10-23T21:37:13.141Z,15.80
2022-10-23T21:39:45.844Z,13.20
2022-10-23T21:42:18.848Z,15.00
2022-10-23T21:44:51.796Z,17.10
2022-10-23T21:47:24.740Z,17.20
2022-10-23T21:49:57.666Z,23.70
2022-10-23T21:52:30.517Z,16.10
2022-10-23T21:55:03.545Z,15.00
2022-10-23T21:57:37.020Z,17.00
2022-10-23T22:00:14.976Z,14.40
2022-10-23T22:02:48.191Z,20.20
2022-10-23T22:05:21.324Z,16.70
2022-10-23T22:07:54.196Z,19.30
2022-10-23T22:10:27.262Z,18.60
2022-10-23T22:13:00.978Z,19.80
2022-10-23T22:15:33.936Z,26.10
2022-10-23T22:18:07.037Z,15.80
2022-10-23T22:20:39.962Z,18.90
2022-10-23T22:23:12.794Z,18.60
2022-10-23T22:25:45.659Z,15.90
2022-10-23T22:28:18.458Z,17.80
2022-10-23T22:30:51.678Z,20.20
2022-10-23T22:33:24.483Z,15.00
2022-10-23T22:36:03.307Z,19.20
2022-10-23T22:38:36.750Z,19.30
2022-10-23T22:41:10.358Z,16.20
2022-10-23T22:43:43.290Z,15.80
2022-10-23T22:46:19.632Z,15.30
2022-10-23T22:48:52.669Z,17.30
2022-10-23T22:51:28.627Z,14.40
2022-10-23T22:54:02.790Z,14.90
2022-10-23T22:56:35.869Z,17.40
2022-10-23T22:59:08.915Z,18.40
2022-10-23T23:01:45.003Z,21.50
2022-10-23T23:04:37.338Z,21.60
2022-10-23T23:07:13.487Z,21.50
2022-10-23T23:09:47.105Z,22.50
2022-10-23T23:12:20.230Z,16.50
2022-10-23T23:14:53.119Z,14.50
2022-10-23T23:17:25.944Z,15.50
2022-10-23T23:19:58.904Z,18.40
2022-10-23T23:22:31.762Z,17.80
2022-10-23T23:25:04.858Z,16.30
2022-10-23T23:27:37.674Z,17.60
2022-10-23T23:30:13.055Z,16.80
2022-10-23T23:32:48.257Z,18.50
2022-10-23T23:35:21.332Z,19.00
2022-10-23T23:37:54.138Z,19.50
2022-10-23T23:40:27.174Z,18.30
2022-10-23T23:43:00.061Z,19.90
2022-10-23T23:45:33.076Z,18.60
2022-10-23T23:48:06.406Z,17.90
2022-10-23T23:50:39.603Z,18.90
2022-10-23T23:53:12.547Z,14.70
2022-10-23T23:55:45.391Z,20.30
2022-10-23T23:58:18.417Z,17.60
